Aérodrome :
LOGIN :

S'inscrire | Disclaimer

   EN    FR    IT 

 










Légende :    VFR   VFR Marginal   IFR   IFR Intensif   IFR Très Intensif
Visi : 
Plafond : 
>= 8 km
>= 3000ft
5 à 8 km
1000 à 3000 ft
1500m à 5 km
500 à 1000 ft
800 à 1500m
200 à 500 ft
< 800m
< 200 ft
Symboles :   Orages  Brouillard  Fortes neiges  Fortes précipitations  Vent > 20 kt
SIGMETs :   Divers  Orages  Givrage  Turbulence  Onde Orograph.  Cendres Volcan.







- Altitude de l'aérodrome : 751 ft
- Code IATA : ENC
- Voir les cartes d'approche


LFSN - Nancy Essey

DERNIER METAR :
  • 280730Z AUTO 18010KT 9999 BKN031 OVC037 05/02 Q0998

METARs EXPIRÉS :
  • 280700Z AUTO 20008KT 180V240 9999 FEW028 BKN035 BKN044 05/01 Q0998
  • 280630Z AUTO 20012KT CAVOK 05/01 Q0998
  • 280600Z AUTO 20011KT 170V240 9999 FEW031 BKN038 BKN180 05/01 Q0997
  • 280530Z AUTO 22013KT 180V250 9999 BKN037 06/01 Q0998
  • 280500Z AUTO 21013KT 180V250 9999 BKN029 OVC034 05/02 Q0998
  • 280430Z AUTO 21011KT 180V240 9999 BKN027 OVC033 06/02 Q0998

Prévision TAF périmée.
Pas de NOTAMs connus pour ce terrain.



MET'MAP, la Météo Aéronautique d'un coup d'oeil ! - Copyright ORBIFLY Décembre 2007 - Disclaimer

ORBIFLY MET'MAP TEAM :

Programmation & Développement : Alexandra Zaïnal
Conception & Développement : Baudouin d'Aumeries
Co-Programmation & Développement : Marc-Olivier Méhu
Soutien technique & logistique : Manuel Goepfert

Contact : metmap@orbifly.com




SOURCES & CREDITS :

   NOAA